createdAt,value
2019-02-16T00:01:40.649Z,25.08
2019-02-16T00:04:10.115Z,25.90
2019-02-16T00:06:39.485Z,29.55
2019-02-16T00:09:08.845Z,27.70
2019-02-16T00:11:38.251Z,27.98
2019-02-16T00:14:07.580Z,29.52
2019-02-16T00:16:36.921Z,31.05
2019-02-16T00:19:06.452Z,27.85
2019-02-16T00:21:35.749Z,27.75
2019-02-16T00:24:05.237Z,27.05
2019-02-16T00:26:34.813Z,27.77
2019-02-16T00:29:04.188Z,27.42
2019-02-16T00:31:33.516Z,28.45
2019-02-16T00:34:03.090Z,27.67
2019-02-16T00:36:32.467Z,23.57
2019-02-16T00:39:01.820Z,23.52
2019-02-16T00:41:31.297Z,29.52
2019-02-16T00:44:00.674Z,27.55
2019-02-16T00:46:30.046Z,25.68
2019-02-16T00:48:59.453Z,28.00
2019-02-16T00:51:28.778Z,28.47
2019-02-16T00:53:58.239Z,25.88
2019-02-16T00:56:28.020Z,30.17
2019-02-16T00:58:57.305Z,30.50
2019-02-16T01:01:26.653Z,29.45
2019-02-16T01:03:56.317Z,31.07
2019-02-16T01:06:25.721Z,28.60
2019-02-16T01:08:54.993Z,31.05
2019-02-16T01:11:24.320Z,30.32
2019-02-16T01:13:54.198Z,24.02
2019-02-16T01:16:23.510Z,27.22
2019-02-16T01:18:52.913Z,27.73
2019-02-16T01:21:23.181Z,30.95
2019-02-16T01:23:52.768Z,32.48
2019-02-16T01:26:22.120Z,26.77
2019-02-16T01:28:51.464Z,31.50
2019-02-16T01:31:20.871Z,34.03
2019-02-16T01:33:50.282Z,29.15
2019-02-16T01:36:19.593Z,28.55
2019-02-16T01:38:48.914Z,29.37
2019-02-16T01:41:18.281Z,27.82
2019-02-16T01:43:47.577Z,27.80
2019-02-16T01:46:17.038Z,26.75
2019-02-16T01:48:46.581Z,28.07
2019-02-16T01:51:16.004Z,28.77
2019-02-16T01:53:45.341Z,37.17
2019-02-16T01:56:14.789Z,29.02
2019-02-16T01:58:44.190Z,28.75
2019-02-16T02:01:13.489Z,27.65
2019-02-16T02:03:42.852Z,26.40
2019-02-16T02:06:12.221Z,29.07
2019-02-16T02:08:41.659Z,28.42
2019-02-16T02:11:11.045Z,30.72
2019-02-16T02:13:40.417Z,29.10
2019-02-16T02:16:09.717Z,27.22
2019-02-16T02:18:39.192Z,35.55
2019-02-16T02:21:08.561Z,29.92
2019-02-16T02:23:37.966Z,26.75
2019-02-16T02:26:07.517Z,27.32
2019-02-16T02:28:36.980Z,28.87
2019-02-16T02:31:06.418Z,25.05
2019-02-16T02:33:35.803Z,31.60
2019-02-16T02:36:05.096Z,27.80
2019-02-16T02:38:34.414Z,29.20
2019-02-16T02:41:03.856Z,28.87
2019-02-16T02:43:33.233Z,28.50
2019-02-16T02:46:02.536Z,29.35
2019-02-16T02:48:31.848Z,32.40
2019-02-16T02:51:01.293Z,29.65
2019-02-16T02:53:31.689Z,33.38
2019-02-16T02:56:01.549Z,31.95
2019-02-16T02:58:30.884Z,29.27
2019-02-16T03:01:00.227Z,34.33
2019-02-16T03:03:29.757Z,27.77
2019-02-16T03:05:59.117Z,34.25
2019-02-16T03:08:28.586Z,35.08
2019-02-16T03:10:58.155Z,30.92
2019-02-16T03:13:27.437Z,33.30
2019-02-16T03:15:56.792Z,31.12
2019-02-16T03:18:26.256Z,35.48
2019-02-16T03:20:55.549Z,30.05
2019-02-16T03:23:25.029Z,29.10
2019-02-16T03:26:27.162Z,33.60
2019-02-16T03:29:03.794Z,26.27
2019-02-16T03:32:12.307Z,30.08
2019-02-16T03:34:55.863Z,28.57
2019-02-16T03:37:56.706Z,30.82
2019-02-16T03:40:25.994Z,27.50
2019-02-16T03:42:55.365Z,29.25
2019-02-16T03:45:24.784Z,32.03
2019-02-16T03:47:54.157Z,33.85
2019-02-16T03:50:23.508Z,31.10
2019-02-16T03:52:53.010Z,34.18
2019-02-16T03:55:22.397Z,32.10
2019-02-16T03:57:51.693Z,38.28
2019-02-16T04:00:21.421Z,35.25
2019-02-16T04:02:50.756Z,35.70
2019-02-16T04:05:20.178Z,36.45
2019-02-16T04:07:49.547Z,35.23
2019-02-16T04:10:18.847Z,38.90
2019-02-16T04:12:48.159Z,39.35
2019-02-16T04:15:17.520Z,44.13
2019-02-16T04:17:47.212Z,44.05
2019-02-16T04:20:16.592Z,40.05
2019-02-16T04:22:46.134Z,34.88
2019-02-16T04:25:15.504Z,35.10
2019-02-16T04:27:44.818Z,38.08
2019-02-16T04:30:14.277Z,37.28
2019-02-16T04:32:43.589Z,37.15
2019-02-16T04:35:12.922Z,33.63
2019-02-16T04:37:42.406Z,38.60
2019-02-16T04:40:11.813Z,44.20
2019-02-16T04:42:41.128Z,38.02
2019-02-16T04:45:10.437Z,34.58
2019-02-16T04:47:39.861Z,38.10
2019-02-16T04:50:09.242Z,34.95
2019-02-16T04:52:38.805Z,33.88
2019-02-16T04:55:08.653Z,39.98
2019-02-16T04:57:38.118Z,42.35
2019-02-16T05:00:08.550Z,43.33
2019-02-16T05:02:37.861Z,35.58
2019-02-16T05:05:07.237Z,42.62
2019-02-16T05:07:36.598Z,41.00
2019-02-16T05:10:06.558Z,38.65
2019-02-16T05:12:35.931Z,38.40
2019-02-16T05:15:05.365Z,37.33
2019-02-16T05:17:34.753Z,40.38
2019-02-16T05:20:04.485Z,36.58
2019-02-16T05:22:43.892Z,41.92
2019-02-16T05:25:05.152Z,40.75
2019-02-16T05:27:34.438Z,38.73
2019-02-16T05:30:03.829Z,38.30
2019-02-16T05:32:33.166Z,41.70
2019-02-16T05:35:02.541Z,41.77
2019-02-16T05:37:32.021Z,43.68
2019-02-16T05:40:01.360Z,38.13
2019-02-16T05:42:30.689Z,37.20
2019-02-16T05:45:00.371Z,42.43
2019-02-16T05:47:29.681Z,42.48
2019-02-16T05:49:58.985Z,38.67
2019-02-16T05:52:28.315Z,36.28
2019-02-16T05:54:57.604Z,36.10
2019-02-16T05:57:26.922Z,40.55
2019-02-16T05:59:56.457Z,41.13
2019-02-16T06:02:25.793Z,39.35
2019-02-16T06:04:55.079Z,40.00
2019-02-16T06:07:24.420Z,38.00
2019-02-16T06:09:53.894Z,48.83
2019-02-16T06:12:23.201Z,54.58
2019-02-16T06:14:52.651Z,51.40
2019-02-16T06:17:22.025Z,44.80
2019-02-16T06:19:51.405Z,49.35
2019-02-16T06:22:20.877Z,43.80
2019-02-16T06:24:50.230Z,43.45
2019-02-16T06:27:19.649Z,48.45
2019-02-16T06:29:49.273Z,44.65
2019-02-16T06:32:19.663Z,44.05
2019-02-16T06:34:51.349Z,40.58
2019-02-16T06:37:25.115Z,38.35
2019-02-16T06:39:54.471Z,41.10
2019-02-16T06:42:23.759Z,42.38
2019-02-16T06:44:53.294Z,38.20
2019-02-16T06:47:22.708Z,41.48
2019-02-16T06:49:52.249Z,42.38
2019-02-16T06:52:21.687Z,37.58
2019-02-16T06:54:50.977Z,45.50
2019-02-16T06:57:26.104Z,41.53
2019-02-16T06:59:55.497Z,41.60
2019-02-16T07:02:26.029Z,43.48
2019-02-16T07:04:55.402Z,46.68
2019-02-16T07:07:24.775Z,40.28
2019-02-16T07:09:54.178Z,45.00
2019-02-16T07:12:23.546Z,40.25
2019-02-16T07:14:52.845Z,44.38
2019-02-16T07:17:38.244Z,44.85
2019-02-16T07:20:08.492Z,43.00
2019-02-16T07:22:37.857Z,43.35
2019-02-16T07:25:07.757Z,42.43
2019-02-16T07:27:37.165Z,47.27
2019-02-16T07:30:08.035Z,46.30
2019-02-16T07:32:37.551Z,41.75
2019-02-16T07:35:07.487Z,48.38
2019-02-16T07:37:36.806Z,47.70
2019-02-16T07:40:06.337Z,46.13
2019-02-16T07:42:52.347Z,46.53
2019-02-16T07:45:41.128Z,45.67
2019-02-16T07:48:24.546Z,56.30
2019-02-16T07:51:00.728Z,51.45
2019-02-16T07:53:55.124Z,51.15
2019-02-16T07:56:29.196Z,43.98
2019-02-16T07:59:09.009Z,47.70
2019-02-16T08:02:09.616Z,45.78
2019-02-16T08:04:54.705Z,44.27
2019-02-16T08:07:52.270Z,53.65
2019-02-16T08:10:39.481Z,50.75
2019-02-16T08:13:30.471Z,45.48
2019-02-16T08:16:17.233Z,53.50
2019-02-16T08:19:17.783Z,45.30
2019-02-16T08:22:04.792Z,47.53
2019-02-16T08:25:02.173Z,53.70
2019-02-16T08:27:50.491Z,49.85
2019-02-16T08:30:41.992Z,47.35
2019-02-16T08:33:36.234Z,48.05
2019-02-16T08:36:28.297Z,44.93
2019-02-16T08:39:15.437Z,41.25
2019-02-16T08:42:02.231Z,43.63
2019-02-16T08:44:41.120Z,43.70
2019-02-16T08:47:18.605Z,43.48
2019-02-16T08:49:56.406Z,45.95
2019-02-16T08:52:38.371Z,45.78
2019-02-16T08:55:14.250Z,38.85
2019-02-16T08:58:11.384Z,38.42
2019-02-16T09:00:58.561Z,47.03
2019-02-16T09:03:47.078Z,37.73
2019-02-16T09:06:24.591Z,52.38
2019-02-16T09:09:14.375Z,39.55
2019-02-16T09:12:08.570Z,40.65
2019-02-16T09:15:00.532Z,38.23
2019-02-16T09:17:45.112Z,40.73
2019-02-16T09:20:39.885Z,46.65
2019-02-16T09:23:19.372Z,35.60
2019-02-16T09:26:10.596Z,39.95
2019-02-16T09:28:58.932Z,35.68
2019-02-16T09:31:42.269Z,42.35
2019-02-16T09:34:33.570Z,36.35
2019-02-16T09:37:11.733Z,39.25
2019-02-16T09:39:47.208Z,77.95
2019-02-16T09:42:53.566Z,34.92
2019-02-16T09:45:44.534Z,53.45
2019-02-16T09:48:34.177Z,36.23
2019-02-16T09:51:34.525Z,33.05
2019-02-16T09:54:20.858Z,33.85
2019-02-16T09:56:55.415Z,39.27
2019-02-16T09:59:35.161Z,31.70
2019-02-16T10:02:29.568Z,34.45
2019-02-16T10:05:17.919Z,28.65
2019-02-16T10:08:06.254Z,45.17
2019-02-16T10:10:57.510Z,71.57
2019-02-16T10:13:39.961Z,38.48
2019-02-16T10:16:18.093Z,32.28
2019-02-16T10:19:11.208Z,43.05
2019-02-16T10:21:58.468Z,32.38
2019-02-16T10:24:39.210Z,41.15
2019-02-16T10:27:30.505Z,37.10
2019-02-16T10:30:27.843Z,32.50
2019-02-16T10:33:09.481Z,30.45
2019-02-16T10:35:50.458Z,33.92
2019-02-16T10:38:48.132Z,29.77
2019-02-16T10:41:51.307Z,33.58
2019-02-16T10:44:35.857Z,33.08
2019-02-16T10:47:21.014Z,28.17
2019-02-16T10:50:13.854Z,27.13
2019-02-16T10:53:17.160Z,32.23
2019-02-16T10:56:05.126Z,25.17
2019-02-16T10:58:44.308Z,24.90
2019-02-16T11:01:23.094Z,25.75
2019-02-16T11:04:14.302Z,25.95
2019-02-16T11:07:05.225Z,27.30
2019-02-16T11:09:49.433Z,28.57
2019-02-16T11:12:52.682Z,27.22
2019-02-16T11:15:34.428Z,26.68
2019-02-16T11:18:21.396Z,33.75
2019-02-16T11:21:15.811Z,23.52
2019-02-16T11:24:06.950Z,27.67
2019-02-16T11:27:04.540Z,28.20
2019-02-16T11:30:05.172Z,24.60
2019-02-16T11:32:51.983Z,30.72
2019-02-16T11:35:33.023Z,23.00
2019-02-16T11:38:13.765Z,29.02
2019-02-16T11:41:01.584Z,26.68
2019-02-16T11:43:41.002Z,25.25
2019-02-16T11:46:31.968Z,29.45
2019-02-16T11:49:26.256Z,28.55
2019-02-16T11:52:13.710Z,23.60
2019-02-16T11:55:10.842Z,23.65
2019-02-16T11:58:07.726Z,25.85
2019-02-16T12:00:56.056Z,27.50
2019-02-16T12:03:33.680Z,26.23
2019-02-16T12:06:13.751Z,26.52
2019-02-16T12:09:02.098Z,26.85
2019-02-16T12:11:56.455Z,23.65
2019-02-16T12:14:49.778Z,24.98
2019-02-16T12:17:36.896Z,25.92
2019-02-16T12:20:22.119Z,24.50
2019-02-16T12:23:14.592Z,27.77
2019-02-16T12:25:53.060Z,25.43
2019-02-16T12:28:44.026Z,23.65
2019-02-16T12:31:25.693Z,27.67
2019-02-16T12:34:16.881Z,27.77
2019-02-16T12:37:05.270Z,25.62
2019-02-16T12:39:53.625Z,22.75
2019-02-16T12:42:41.177Z,28.90
2019-02-16T12:45:25.752Z,22.60
2019-02-16T12:48:20.290Z,27.87
2019-02-16T12:51:05.297Z,25.08
2019-02-16T12:53:52.361Z,23.77
2019-02-16T12:56:33.595Z,26.25
2019-02-16T12:59:11.705Z,26.05
2019-02-16T13:01:54.421Z,24.50
2019-02-16T13:04:41.318Z,26.15
2019-02-16T13:07:35.517Z,27.27
2019-02-16T13:10:23.037Z,30.90
2019-02-16T13:13:14.402Z,27.07
2019-02-16T13:15:54.542Z,30.12
2019-02-16T13:18:42.870Z,29.27
2019-02-16T13:21:43.237Z,25.50
2019-02-16T13:24:23.138Z,27.00
2019-02-16T13:27:11.645Z,27.32
2019-02-16T13:29:59.963Z,29.67
2019-02-16T13:32:45.578Z,29.77
2019-02-16T13:35:22.798Z,31.73
2019-02-16T13:38:14.422Z,24.52
2019-02-16T13:40:52.841Z,25.32
2019-02-16T13:43:44.004Z,29.35
2019-02-16T13:46:30.921Z,26.20
2019-02-16T13:49:10.330Z,29.02
2019-02-16T13:52:05.308Z,28.60
2019-02-16T13:54:56.869Z,30.62
2019-02-16T13:57:57.334Z,29.67
2019-02-16T14:00:31.617Z,29.35
2019-02-16T14:03:19.942Z,26.70
2019-02-16T14:06:11.462Z,28.25
2019-02-16T14:08:58.329Z,29.70
2019-02-16T14:11:35.042Z,28.38
2019-02-16T14:14:29.421Z,28.25
2019-02-16T14:17:17.293Z,33.70
2019-02-16T14:19:46.665Z,31.42
2019-02-16T14:22:15.963Z,27.30
2019-02-16T14:24:48.352Z,38.25
2019-02-16T14:27:17.657Z,33.63
2019-02-16T14:29:46.950Z,32.00
2019-02-16T14:32:16.394Z,31.73
2019-02-16T14:34:45.713Z,29.82
2019-02-16T14:37:36.988Z,29.00
2019-02-16T14:40:06.457Z,29.63
2019-02-16T14:42:35.865Z,35.55
2019-02-16T14:45:05.923Z,27.80
2019-02-16T14:47:35.237Z,28.62
2019-02-16T14:50:04.793Z,28.50
2019-02-16T14:52:34.265Z,30.15
2019-02-16T14:55:03.553Z,31.33
2019-02-16T14:57:32.926Z,30.32
2019-02-16T15:00:02.337Z,31.60
2019-02-16T15:02:31.645Z,30.65
2019-02-16T15:05:00.934Z,32.10
2019-02-16T15:07:30.343Z,32.45
2019-02-16T15:09:59.654Z,32.95
2019-02-16T15:12:28.950Z,34.88
2019-02-16T15:14:58.479Z,35.50
2019-02-16T15:17:27.866Z,31.95
2019-02-16T15:19:57.154Z,30.45
2019-02-16T15:22:26.616Z,30.43
2019-02-16T15:24:56.062Z,29.72
2019-02-16T15:27:25.437Z,28.55
2019-02-16T15:29:54.838Z,32.45
2019-02-16T15:32:24.142Z,38.15
2019-02-16T15:34:53.489Z,31.07
2019-02-16T15:37:22.860Z,32.75
2019-02-16T15:39:52.295Z,31.52
2019-02-16T15:42:21.821Z,31.23
2019-02-16T15:44:51.339Z,34.15
2019-02-16T15:47:20.757Z,32.93
2019-02-16T15:49:50.201Z,33.40
2019-02-16T15:52:19.816Z,30.10
2019-02-16T15:54:49.197Z,32.13
2019-02-16T15:57:18.565Z,30.57
2019-02-16T15:59:47.993Z,30.32
2019-02-16T16:02:17.414Z,32.93
2019-02-16T16:04:46.804Z,29.10
2019-02-16T16:07:17.725Z,30.10
2019-02-16T16:10:06.387Z,30.50
2019-02-16T16:12:57.805Z,31.57
2019-02-16T16:15:49.228Z,31.85
2019-02-16T16:18:43.037Z,30.62
2019-02-16T16:21:23.619Z,32.33
2019-02-16T16:24:01.637Z,30.85
2019-02-16T16:26:58.873Z,30.72
2019-02-16T16:29:45.963Z,30.97
2019-02-16T16:32:43.358Z,30.20
2019-02-16T16:35:19.774Z,33.33
2019-02-16T16:38:16.900Z,30.02
2019-02-16T16:40:58.684Z,38.83
2019-02-16T16:43:45.214Z,33.88
2019-02-16T16:46:28.689Z,28.92
2019-02-16T16:49:10.278Z,31.52
2019-02-16T16:51:57.050Z,30.23
2019-02-16T16:54:45.372Z,34.78
2019-02-16T16:57:26.663Z,31.23
2019-02-16T17:00:13.562Z,32.85
2019-02-16T17:03:01.092Z,33.65
2019-02-16T17:05:49.423Z,38.45
2019-02-16T17:08:37.637Z,41.18
2019-02-16T17:11:38.104Z,37.40
2019-02-16T17:14:16.249Z,37.13
2019-02-16T17:17:13.735Z,34.20
2019-02-16T17:20:01.342Z,41.23
2019-02-16T17:22:49.658Z,39.53
2019-02-16T17:25:38.184Z,39.25
2019-02-16T17:28:32.593Z,36.53
2019-02-16T17:31:19.953Z,38.30
2019-02-16T17:34:14.744Z,39.10
2019-02-16T17:37:06.117Z,36.33
2019-02-16T17:39:51.598Z,44.80
2019-02-16T17:42:33.651Z,40.95
2019-02-16T17:45:22.171Z,40.55
2019-02-16T17:48:03.268Z,37.73
2019-02-16T17:50:43.264Z,42.23
2019-02-16T17:53:23.674Z,38.20
2019-02-16T17:56:12.133Z,35.88
2019-02-16T17:58:59.012Z,41.18
2019-02-16T18:01:53.186Z,44.53
2019-02-16T18:04:35.522Z,44.45
2019-02-16T18:07:22.862Z,45.48
2019-02-16T18:10:06.349Z,38.30
2019-02-16T18:13:09.958Z,45.15
2019-02-16T18:15:54.723Z,38.73
2019-02-16T18:18:41.471Z,39.60
2019-02-16T18:21:28.656Z,39.10
2019-02-16T18:24:17.009Z,43.78
2019-02-16T18:26:59.519Z,39.70
2019-02-16T18:29:50.703Z,41.85
2019-02-16T18:32:41.222Z,42.78
2019-02-16T18:35:48.145Z,49.75
2019-02-16T18:38:45.758Z,54.75
2019-02-16T18:41:32.599Z,56.95
2019-02-16T18:44:11.727Z,58.50
2019-02-16T18:47:18.269Z,59.63
2019-02-16T18:50:06.608Z,53.40
2019-02-16T18:52:53.855Z,61.58
2019-02-16T18:55:54.251Z,49.67
2019-02-16T18:58:55.011Z,54.38
2019-02-16T19:01:43.388Z,53.52
2019-02-16T19:04:31.921Z,60.80
2019-02-16T19:07:10.505Z,65.08
2019-02-16T19:09:57.763Z,61.53
2019-02-16T19:12:45.173Z,64.32
2019-02-16T19:15:31.991Z,67.87
2019-02-16T19:18:13.280Z,66.20
2019-02-16T19:20:52.938Z,48.28
2019-02-16T19:23:40.226Z,49.45
2019-02-16T19:26:17.492Z,53.40
2019-02-16T19:29:11.957Z,58.25
2019-02-16T19:31:50.733Z,60.90
2019-02-16T19:34:35.251Z,56.10
2019-02-16T19:37:15.964Z,63.40
2019-02-16T19:40:01.096Z,65.70
2019-02-16T19:42:45.187Z,66.92
2019-02-16T19:45:23.998Z,63.98
2019-02-16T19:48:18.098Z,53.90
2019-02-16T19:51:09.397Z,50.15
2019-02-16T19:54:00.977Z,49.03
2019-02-16T19:56:59.388Z,52.70
2019-02-16T19:59:50.326Z,50.95
2019-02-16T20:02:44.410Z,48.38
2019-02-16T20:05:27.698Z,50.30
2019-02-16T20:08:27.701Z,58.63
2019-02-16T20:11:12.484Z,60.35
2019-02-16T20:13:51.941Z,66.90
2019-02-16T20:16:40.420Z,60.55
2019-02-16T20:19:20.496Z,55.08
2019-02-16T20:22:14.582Z,52.90
2019-02-16T20:25:01.182Z,53.75
2019-02-16T20:28:04.355Z,52.85
2019-02-16T20:31:01.720Z,53.00
2019-02-16T20:33:47.265Z,54.08
2019-02-16T20:36:47.590Z,58.23
2019-02-16T20:39:44.700Z,64.70
2019-02-16T20:42:31.657Z,54.65
2019-02-16T20:45:10.894Z,45.28
2019-02-16T20:47:46.274Z,52.55
2019-02-16T20:50:40.341Z,53.38
2019-02-16T20:53:24.855Z,58.23
2019-02-16T20:56:05.722Z,54.65
2019-02-16T20:58:59.738Z,57.03
2019-02-16T21:01:51.737Z,73.60
2019-02-16T21:04:37.519Z,66.10
2019-02-16T21:07:31.826Z,66.70
2019-02-16T21:10:20.186Z,71.67
2019-02-16T21:13:17.570Z,61.58
2019-02-16T21:16:08.677Z,62.53
2019-02-16T21:18:55.974Z,56.65
2019-02-16T21:21:44.303Z,61.70
2019-02-16T21:24:31.661Z,69.32
2019-02-16T21:27:18.858Z,66.10
2019-02-16T21:29:54.688Z,66.30
2019-02-16T21:32:58.107Z,67.85
2019-02-16T21:35:52.736Z,72.42
2019-02-16T21:38:44.054Z,63.52
2019-02-16T21:41:23.027Z,55.85
2019-02-16T21:44:04.781Z,58.73
2019-02-16T21:46:55.942Z,53.65
2019-02-16T21:49:47.333Z,49.67
2019-02-16T21:52:34.578Z,59.55
2019-02-16T21:55:21.601Z,64.47
2019-02-16T21:58:12.805Z,62.17
2019-02-16T22:00:59.833Z,65.10
2019-02-16T22:03:36.471Z,64.53
2019-02-16T22:06:43.147Z,60.83
2019-02-16T22:09:58.648Z,62.60
2019-02-16T22:12:58.625Z,54.60
2019-02-16T22:15:27.951Z,59.53
2019-02-16T22:17:57.304Z,56.33
2019-02-16T22:20:26.612Z,52.08
2019-02-16T22:22:55.929Z,60.67
2019-02-16T22:25:25.314Z,61.65
2019-02-16T22:27:54.619Z,58.15
2019-02-16T22:30:24.121Z,55.98
2019-02-16T22:32:53.539Z,58.38
2019-02-16T22:35:22.932Z,57.30
2019-02-16T22:37:52.258Z,52.23
2019-02-16T22:40:21.613Z,55.55
2019-02-16T22:42:50.902Z,58.85
2019-02-16T22:45:20.589Z,60.75
2019-02-16T22:47:49.992Z,70.37
2019-02-16T22:50:19.600Z,65.52
2019-02-16T22:52:49.122Z,67.27
2019-02-16T22:55:18.406Z,71.70
2019-02-16T22:57:47.758Z,60.12
2019-02-16T23:00:47.237Z,59.55
2019-02-16T23:03:17.318Z,57.70
2019-02-16T23:05:46.777Z,56.53
2019-02-16T23:08:16.429Z,63.50
2019-02-16T23:10:45.731Z,56.87
2019-02-16T23:13:15.106Z,56.98
2019-02-16T23:15:44.442Z,60.40
2019-02-16T23:18:13.841Z,58.40
2019-02-16T23:20:43.253Z,57.60
2019-02-16T23:23:12.597Z,54.50
2019-02-16T23:25:42.706Z,62.23
2019-02-16T23:28:12.093Z,66.42
2019-02-16T23:30:41.502Z,60.48
2019-02-16T23:33:10.808Z,62.88
2019-02-16T23:35:40.093Z,70.12
2019-02-16T23:38:09.657Z,69.10
2019-02-16T23:40:38.968Z,68.22
2019-02-16T23:43:08.340Z,65.85
2019-02-16T23:45:37.733Z,71.25
2019-02-16T23:48:07.197Z,66.20
2019-02-16T23:50:36.481Z,66.87
2019-02-16T23:53:06.073Z,62.23
2019-02-16T23:55:35.451Z,64.72
2019-02-16T23:58:04.845Z,57.50
